createdAt,value
2018-07-20T00:00:46.849Z,0.00
2018-07-20T00:02:39.866Z,0.00
2018-07-20T00:03:39.812Z,0.00
2018-07-20T00:05:32.821Z,0.00
2018-07-20T00:06:32.777Z,0.00
2018-07-20T00:08:25.633Z,0.00
2018-07-20T00:09:25.605Z,0.00
2018-07-20T00:11:18.457Z,0.00
2018-07-20T00:12:18.396Z,0.00
2018-07-20T00:14:11.394Z,0.00
2018-07-20T00:15:11.367Z,0.00
2018-07-20T00:17:04.204Z,0.00
2018-07-20T00:18:04.143Z,0.00
2018-07-20T00:19:57.000Z,0.00
2018-07-20T00:20:56.953Z,0.00
2018-07-20T00:22:49.975Z,0.00
2018-07-20T00:23:49.938Z,0.00
2018-07-20T00:25:42.967Z,0.00
2018-07-20T00:26:42.918Z,0.00
2018-07-20T00:28:36.154Z,0.00
2018-07-20T00:29:36.075Z,0.00
2018-07-20T00:31:29.088Z,0.00
2018-07-20T00:32:29.059Z,0.00
2018-07-20T00:34:22.068Z,0.00
2018-07-20T00:35:22.026Z,0.00
2018-07-20T00:37:15.071Z,0.00
2018-07-20T00:38:15.024Z,0.00
2018-07-20T00:40:08.037Z,0.00
2018-07-20T00:41:08.008Z,0.00
2018-07-20T00:43:01.280Z,0.00
2018-07-20T00:44:01.158Z,0.00
2018-07-20T00:45:54.217Z,0.00
2018-07-20T00:46:54.168Z,0.00
2018-07-20T00:48:47.332Z,0.00
2018-07-20T00:49:47.307Z,0.00
2018-07-20T00:51:40.312Z,0.00
2018-07-20T00:52:40.264Z,0.00
2018-07-20T00:54:33.268Z,0.00
2018-07-20T00:55:33.223Z,0.00
2018-07-20T00:57:26.060Z,0.00
2018-07-20T00:58:26.012Z,0.00
2018-07-20T01:00:19.008Z,0.00
2018-07-20T01:01:18.978Z,0.00
2018-07-20T01:03:12.199Z,0.00
2018-07-20T01:04:12.149Z,0.00
2018-07-20T01:06:05.244Z,0.00
2018-07-20T01:07:05.190Z,0.00
2018-07-20T01:08:58.176Z,0.00
2018-07-20T01:09:58.143Z,0.00
2018-07-20T01:11:51.423Z,0.00
2018-07-20T01:12:51.303Z,0.00
2018-07-20T01:14:44.287Z,0.00
2018-07-20T01:15:44.268Z,0.00
2018-07-20T01:17:37.256Z,0.00
2018-07-20T01:18:37.226Z,0.00
2018-07-20T01:20:30.639Z,0.00
2018-07-20T01:21:30.035Z,0.00
2018-07-20T01:23:23.096Z,0.00
2018-07-20T01:24:23.039Z,0.00
2018-07-20T01:26:16.061Z,0.00
2018-07-20T01:27:16.010Z,0.00
2018-07-20T01:29:08.850Z,0.00
2018-07-20T01:30:08.815Z,0.00
2018-07-20T01:32:01.788Z,0.00
2018-07-20T01:33:01.605Z,0.00
2018-07-20T01:34:54.611Z,0.00
2018-07-20T01:35:54.583Z,0.00
2018-07-20T01:37:47.584Z,0.00
2018-07-20T01:38:47.536Z,0.00
2018-07-20T01:40:40.436Z,0.00
2018-07-20T01:41:40.409Z,0.00
2018-07-20T01:43:33.439Z,0.00
2018-07-20T01:44:33.383Z,0.00
2018-07-20T01:46:26.383Z,0.00
2018-07-20T01:47:26.349Z,0.00
2018-07-20T01:49:19.213Z,0.00
2018-07-20T01:50:19.170Z,0.00
2018-07-20T01:52:11.994Z,0.00
2018-07-20T01:53:11.949Z,0.00
2018-07-20T01:55:04.961Z,0.00
2018-07-20T01:56:04.909Z,0.00
2018-07-20T01:57:57.737Z,0.00
2018-07-20T01:58:57.735Z,0.00
2018-07-20T02:00:50.520Z,0.00
2018-07-20T02:01:50.466Z,0.00
2018-07-20T02:03:43.315Z,0.00
2018-07-20T02:04:43.257Z,0.00
2018-07-20T02:06:36.280Z,0.00
2018-07-20T02:07:36.235Z,0.00
2018-07-20T02:09:29.245Z,0.00
2018-07-20T02:10:29.256Z,0.00
2018-07-20T02:12:22.011Z,0.00
2018-07-20T02:13:21.980Z,0.00
2018-07-20T02:15:15.110Z,0.00
2018-07-20T02:16:15.058Z,0.00
2018-07-20T02:18:08.057Z,0.00
2018-07-20T02:19:08.051Z,0.00
2018-07-20T02:21:01.312Z,0.00
2018-07-20T02:22:01.153Z,0.00
2018-07-20T02:23:54.160Z,0.00
2018-07-20T02:24:54.106Z,0.00
2018-07-20T02:26:47.105Z,0.00
2018-07-20T02:27:47.062Z,0.00
2018-07-20T02:29:39.980Z,0.00
2018-07-20T02:30:39.927Z,0.00
2018-07-20T02:32:32.921Z,0.00
2018-07-20T02:33:32.885Z,0.00
2018-07-20T02:35:25.896Z,0.00
2018-07-20T02:36:25.846Z,0.00
2018-07-20T02:38:18.951Z,0.00
2018-07-20T02:39:18.808Z,0.00
2018-07-20T02:41:11.816Z,0.00
2018-07-20T02:42:11.772Z,0.00
2018-07-20T02:44:04.590Z,0.00
2018-07-20T02:45:04.551Z,0.00
2018-07-20T02:46:57.738Z,0.00
2018-07-20T02:47:57.681Z,0.00
2018-07-20T02:49:50.697Z,0.00
2018-07-20T02:50:50.626Z,0.00
2018-07-20T02:52:43.645Z,0.00
2018-07-20T02:53:43.621Z,0.00
2018-07-20T02:55:36.560Z,0.00
2018-07-20T02:56:36.510Z,0.00
2018-07-20T02:58:29.489Z,0.00
2018-07-20T02:59:29.459Z,0.00
2018-07-20T03:01:22.284Z,0.00
2018-07-20T03:02:22.249Z,0.00
2018-07-20T03:04:15.242Z,0.00
2018-07-20T03:05:15.207Z,0.00
2018-07-20T03:07:08.234Z,0.00
2018-07-20T03:08:08.192Z,4.00
2018-07-20T03:10:01.248Z,0.00
2018-07-20T03:11:01.203Z,0.00
2018-07-20T03:12:54.439Z,4.00
2018-07-20T03:13:54.309Z,4.00
2018-07-20T03:15:47.331Z,4.00
2018-07-20T03:16:47.285Z,4.00
2018-07-20T03:18:40.103Z,4.00
2018-07-20T03:19:40.078Z,4.00
2018-07-20T03:21:33.231Z,8.00
2018-07-20T03:22:33.170Z,8.00
2018-07-20T03:24:26.180Z,12.00
2018-07-20T03:25:26.145Z,12.00
2018-07-20T03:27:19.197Z,16.00
2018-07-20T03:28:19.150Z,16.00
2018-07-20T03:30:12.207Z,20.00
2018-07-20T03:31:12.148Z,24.00
2018-07-20T03:33:05.158Z,28.00
2018-07-20T03:34:05.113Z,32.00
2018-07-20T03:35:58.349Z,40.00
2018-07-20T03:36:58.224Z,44.00
2018-07-20T03:38:51.234Z,52.00
2018-07-20T03:39:51.173Z,60.00
2018-07-20T03:41:43.994Z,68.00
2018-07-20T03:42:43.984Z,72.00
2018-07-20T03:44:37.215Z,84.00
2018-07-20T03:45:37.101Z,88.00
2018-07-20T03:47:30.106Z,96.00
2018-07-20T03:48:30.101Z,104.00
2018-07-20T03:50:23.090Z,116.00
2018-07-20T03:51:23.030Z,120.00
2018-07-20T03:53:15.884Z,136.00
2018-07-20T03:54:15.834Z,140.00
2018-07-20T03:56:08.833Z,156.00
2018-07-20T03:57:08.800Z,164.00
2018-07-20T03:59:01.803Z,180.00
2018-07-20T04:00:01.789Z,188.00
2018-07-20T04:01:54.670Z,208.00
2018-07-20T04:02:54.530Z,216.00
2018-07-20T04:04:47.656Z,236.00
2018-07-20T04:05:47.591Z,244.00
2018-07-20T04:07:40.576Z,260.00
2018-07-20T04:08:40.602Z,268.00
2018-07-20T04:10:33.836Z,288.00
2018-07-20T04:11:33.674Z,292.00
2018-07-20T04:13:26.656Z,304.00
2018-07-20T04:14:26.624Z,312.00
2018-07-20T04:16:19.632Z,328.00
2018-07-20T04:17:19.580Z,336.00
2018-07-20T04:19:12.597Z,348.00
2018-07-20T04:20:12.471Z,352.00
2018-07-20T04:22:05.331Z,360.00
2018-07-20T04:23:05.247Z,360.00
2018-07-20T04:24:58.241Z,372.00
2018-07-20T04:25:58.197Z,380.00
2018-07-20T04:27:51.167Z,388.00
2018-07-20T04:28:51.133Z,396.00
2018-07-20T04:30:44.053Z,408.00
2018-07-20T04:31:43.946Z,416.00
2018-07-20T04:33:36.777Z,436.00
2018-07-20T04:34:36.721Z,448.00
2018-07-20T04:36:29.907Z,468.00
2018-07-20T04:37:29.700Z,484.00
2018-07-20T04:39:22.542Z,508.00
2018-07-20T04:40:22.510Z,524.00
2018-07-20T04:42:15.342Z,548.00
2018-07-20T04:43:15.283Z,564.00
2018-07-20T04:45:08.093Z,596.00
2018-07-20T04:46:08.062Z,604.00
2018-07-20T04:48:01.069Z,632.00
2018-07-20T04:49:01.024Z,644.00
2018-07-20T04:50:54.038Z,676.00
2018-07-20T04:51:53.978Z,696.00
2018-07-20T04:53:46.808Z,736.00
2018-07-20T04:54:46.764Z,760.00
2018-07-20T04:56:39.775Z,804.00
2018-07-20T04:57:39.719Z,828.00
2018-07-20T04:59:32.776Z,876.00
2018-07-20T05:00:32.771Z,892.00
2018-07-20T05:02:25.961Z,916.00
2018-07-20T05:03:25.838Z,924.00
2018-07-20T05:05:18.823Z,944.00
2018-07-20T05:06:18.788Z,952.00
2018-07-20T05:08:11.798Z,968.00
2018-07-20T05:09:11.754Z,972.00
2018-07-20T05:11:04.572Z,984.00
2018-07-20T05:12:04.537Z,988.00
2018-07-20T05:13:57.584Z,1016.00
2018-07-20T05:14:57.481Z,1028.00
2018-07-20T05:16:50.512Z,1056.00
2018-07-20T05:17:50.467Z,1068.00
2018-07-20T05:19:43.627Z,1108.00
2018-07-20T05:20:43.572Z,1124.00
2018-07-20T05:22:36.604Z,1164.00
2018-07-20T05:23:36.550Z,1184.00
2018-07-20T05:25:29.537Z,1224.00
2018-07-20T05:26:29.483Z,1240.00
2018-07-20T05:28:22.499Z,1284.00
2018-07-20T05:29:22.329Z,1308.00
2018-07-20T05:31:15.136Z,1356.00
2018-07-20T05:32:15.106Z,1380.00
2018-07-20T05:34:08.153Z,1428.00
2018-07-20T05:35:08.196Z,1448.00
2018-07-20T05:37:01.370Z,1492.00
2018-07-20T05:38:01.245Z,1520.00
2018-07-20T05:39:54.243Z,1564.00
2018-07-20T05:40:54.190Z,1584.00
2018-07-20T05:42:47.176Z,1620.00
2018-07-20T05:43:47.148Z,1632.00
2018-07-20T05:45:40.014Z,1664.00
2018-07-20T05:46:39.966Z,1668.00
2018-07-20T05:48:32.956Z,1700.00
2018-07-20T05:49:32.942Z,1708.00
2018-07-20T05:51:25.953Z,1724.00
2018-07-20T05:52:25.909Z,1736.00
2018-07-20T05:54:19.094Z,1744.00
2018-07-20T05:55:18.984Z,1752.00
2018-07-20T05:57:12.000Z,1768.00
2018-07-20T05:58:11.979Z,1772.00
2018-07-20T06:00:04.971Z,1796.00
2018-07-20T06:01:04.923Z,1804.00
2018-07-20T06:02:57.769Z,1828.00
2018-07-20T06:03:57.778Z,1836.00
2018-07-20T06:05:50.782Z,1860.00
2018-07-20T06:06:50.755Z,1864.00
2018-07-20T06:08:43.729Z,1884.00
2018-07-20T06:09:43.690Z,1884.00
2018-07-20T06:11:36.646Z,1892.00
2018-07-20T06:12:36.597Z,1896.00
2018-07-20T06:14:29.573Z,1912.00
2018-07-20T06:15:29.543Z,1924.00
2018-07-20T06:17:22.395Z,1948.00
2018-07-20T06:18:22.355Z,1964.00
2018-07-20T06:20:15.655Z,1992.00
2018-07-20T06:21:15.480Z,2016.00
2018-07-20T06:23:08.681Z,2040.00
2018-07-20T06:24:08.649Z,2048.00
2018-07-20T06:26:01.892Z,2068.00
2018-07-20T06:27:01.716Z,2076.00
2018-07-20T06:28:54.728Z,2092.00
2018-07-20T06:29:54.736Z,2096.00
2018-07-20T06:31:47.702Z,2108.00
2018-07-20T06:32:47.652Z,2132.00
2018-07-20T06:34:40.486Z,2156.00
2018-07-20T06:35:40.447Z,2172.00
2018-07-20T06:37:33.449Z,2200.00
2018-07-20T06:38:33.401Z,2220.00
2018-07-20T06:40:26.435Z,2264.00
2018-07-20T06:41:26.387Z,2280.00
2018-07-20T06:43:19.534Z,2320.00
2018-07-20T06:44:19.476Z,2340.00
2018-07-20T06:46:12.490Z,2380.00
2018-07-20T06:47:12.440Z,2404.00
2018-07-20T06:49:05.426Z,2456.00
2018-07-20T06:50:05.393Z,2480.00
2018-07-20T06:51:58.271Z,2524.00
2018-07-20T06:52:58.222Z,2552.00
2018-07-20T06:54:51.208Z,2592.00
2018-07-20T06:55:51.226Z,2612.00
2018-07-20T06:57:44.190Z,2656.00
2018-07-20T06:58:44.133Z,2672.00
2018-07-20T07:00:37.316Z,2708.00
2018-07-20T07:01:37.238Z,2728.00
2018-07-20T07:03:30.252Z,2764.00
2018-07-20T07:04:30.197Z,2776.00
2018-07-20T07:06:23.181Z,2800.00
2018-07-20T07:07:23.142Z,2788.00
2018-07-20T07:09:16.189Z,2796.00
2018-07-20T07:10:16.143Z,2796.00
2018-07-20T07:12:09.144Z,2800.00
2018-07-20T07:13:09.136Z,2800.00
2018-07-20T07:15:02.250Z,2800.00
2018-07-20T07:16:02.206Z,2812.00
2018-07-20T07:17:55.234Z,2824.00
2018-07-20T07:18:55.197Z,2836.00
2018-07-20T07:20:48.179Z,2880.00
2018-07-20T07:21:48.137Z,2904.00
2018-07-20T07:23:41.112Z,2948.00
2018-07-20T07:24:41.022Z,2960.00
2018-07-20T07:26:34.000Z,2988.00
2018-07-20T07:27:33.963Z,2996.00
2018-07-20T07:29:26.797Z,3012.00
2018-07-20T07:30:26.759Z,3020.00
2018-07-20T07:32:19.569Z,3024.00
2018-07-20T07:33:19.584Z,3024.00
2018-07-20T07:35:12.828Z,3048.00
2018-07-20T07:36:12.650Z,3072.00
2018-07-20T07:38:05.499Z,3116.00
2018-07-20T07:39:05.439Z,3144.00
2018-07-20T07:40:58.528Z,3192.00
2018-07-20T07:41:58.503Z,3220.00
2018-07-20T07:43:51.354Z,3272.00
2018-07-20T07:44:51.310Z,3300.00
2018-07-20T07:46:44.304Z,3348.00
2018-07-20T07:47:44.270Z,3364.00
2018-07-20T07:49:37.319Z,3376.00
2018-07-20T07:50:37.258Z,3384.00
2018-07-20T07:52:30.413Z,3400.00
2018-07-20T07:53:30.374Z,3416.00
2018-07-20T07:55:23.404Z,3428.00
2018-07-20T07:56:23.352Z,3424.00
2018-07-20T07:58:16.331Z,3424.00
2018-07-20T07:59:16.306Z,3424.00
2018-07-20T08:01:09.414Z,3424.00
2018-07-20T08:02:09.335Z,3440.00
2018-07-20T08:04:02.335Z,3456.00
2018-07-20T08:05:02.295Z,3468.00
2018-07-20T08:06:55.515Z,3476.00
2018-07-20T08:07:55.410Z,3472.00
2018-07-20T08:09:48.492Z,3520.00
2018-07-20T08:10:48.370Z,3544.00
2018-07-20T08:12:41.350Z,3576.00
2018-07-20T08:13:41.324Z,3572.00
2018-07-20T08:15:34.201Z,3572.00
2018-07-20T08:16:34.147Z,3576.00
2018-07-20T08:18:27.131Z,3604.00
2018-07-20T08:19:27.116Z,3608.00
2018-07-20T08:21:19.946Z,3632.00
2018-07-20T08:22:19.897Z,3624.00
2018-07-20T08:24:12.867Z,3620.00
2018-07-20T08:25:12.846Z,3660.00
2018-07-20T08:27:05.714Z,3688.00
2018-07-20T08:28:05.665Z,3764.00
2018-07-20T08:29:58.687Z,3804.00
2018-07-20T08:30:58.623Z,3828.00
2018-07-20T08:32:51.646Z,3872.00
2018-07-20T08:33:51.620Z,3896.00
2018-07-20T08:35:44.755Z,3940.00
2018-07-20T08:36:44.697Z,3956.00
2018-07-20T08:38:37.705Z,4004.00
2018-07-20T08:39:37.756Z,4028.00
2018-07-20T08:41:30.912Z,4068.00
2018-07-20T08:42:30.810Z,4096.00
2018-07-20T08:44:23.810Z,4124.00
2018-07-20T08:45:23.785Z,4144.00
2018-07-20T08:47:16.815Z,4160.00
2018-07-20T08:48:16.757Z,4168.00
2018-07-20T08:50:09.585Z,4152.00
2018-07-20T08:51:09.558Z,4124.00
2018-07-20T08:53:02.454Z,4068.00
2018-07-20T08:54:02.369Z,4036.00
2018-07-20T08:55:55.393Z,4028.00
2018-07-20T08:56:55.332Z,4048.00
2018-07-20T08:58:48.341Z,4216.00
2018-07-20T08:59:48.304Z,4272.00
2018-07-20T09:01:41.286Z,4408.00
2018-07-20T09:02:41.099Z,4452.00
2018-07-20T09:04:34.111Z,4528.00
2018-07-20T09:05:34.084Z,4584.00
2018-07-20T09:07:27.106Z,4660.00
2018-07-20T09:08:27.067Z,4704.00
2018-07-20T09:10:19.893Z,4788.00
2018-07-20T09:11:19.864Z,4840.00
2018-07-20T09:13:12.882Z,4916.00
2018-07-20T09:14:12.829Z,4948.00
2018-07-20T09:16:05.826Z,5008.00
2018-07-20T09:17:05.802Z,5036.00
2018-07-20T09:18:59.013Z,5092.00
2018-07-20T09:19:58.923Z,5144.00
2018-07-20T09:21:51.946Z,5212.00
2018-07-20T09:22:51.907Z,5232.00
2018-07-20T09:24:44.985Z,5232.00
2018-07-20T09:25:44.923Z,5296.00
2018-07-20T09:27:37.973Z,5336.00
2018-07-20T09:28:37.938Z,5368.00
2018-07-20T09:30:30.952Z,5440.00
2018-07-20T09:31:30.990Z,5476.00
2018-07-20T09:33:24.737Z,5540.00
2018-07-20T09:34:24.126Z,5572.00
2018-07-20T09:36:17.319Z,5640.00
2018-07-20T09:37:17.119Z,5676.00
2018-07-20T09:39:10.362Z,5720.00
2018-07-20T09:40:10.278Z,5692.00
2018-07-20T09:42:03.472Z,5748.00
2018-07-20T09:43:03.573Z,5780.00
2018-07-20T09:44:56.227Z,5916.00
2018-07-20T09:45:56.201Z,5980.00
2018-07-20T09:47:49.195Z,6072.00
2018-07-20T09:48:49.174Z,6160.00
2018-07-20T09:50:42.619Z,6296.00
2018-07-20T09:51:42.261Z,6372.00
2018-07-20T09:53:35.385Z,6492.00
2018-07-20T09:54:35.343Z,6552.00
2018-07-20T09:56:28.160Z,6688.00
2018-07-20T09:57:28.131Z,6788.00
2018-07-20T09:59:21.192Z,6980.00
2018-07-20T10:00:21.109Z,7176.00
2018-07-20T10:02:14.310Z,13988.00
2018-07-20T10:03:14.281Z,39872.00
2018-07-20T10:05:07.381Z,51776.00
2018-07-20T10:06:07.267Z,51936.00
2018-07-20T10:08:00.471Z,47840.00
2018-07-20T10:09:00.399Z,46240.00
2018-07-20T10:10:53.438Z,42560.00
2018-07-20T10:11:53.524Z,40864.00
2018-07-20T10:13:46.244Z,36736.00
2018-07-20T10:14:46.211Z,35648.00
2018-07-20T10:16:39.071Z,30624.00
2018-07-20T10:17:39.019Z,28448.00
2018-07-20T10:19:32.047Z,26432.00
2018-07-20T10:20:32.031Z,25216.00
2018-07-20T10:22:24.883Z,22656.00
2018-07-20T10:23:24.849Z,21984.00
2018-07-20T10:25:17.981Z,20992.00
2018-07-20T10:26:17.947Z,20512.00
2018-07-20T10:28:10.995Z,19040.00
2018-07-20T10:29:10.966Z,18272.00
2018-07-20T10:31:04.051Z,18048.00
2018-07-20T10:32:04.027Z,18496.00
2018-07-20T10:33:56.860Z,18048.00
2018-07-20T10:34:56.835Z,18208.00
2018-07-20T10:36:49.911Z,16736.00
2018-07-20T10:37:49.869Z,15468.00
2018-07-20T10:39:42.927Z,13728.00
2018-07-20T10:40:42.916Z,14544.00
2018-07-20T10:42:35.976Z,15420.00
2018-07-20T10:43:35.941Z,16480.00
2018-07-20T10:45:28.995Z,15868.00
2018-07-20T10:46:28.959Z,15408.00
2018-07-20T10:48:22.157Z,14868.00
2018-07-20T10:49:22.118Z,14876.00
2018-07-20T10:51:15.002Z,14612.00
2018-07-20T10:52:14.981Z,14840.00
2018-07-20T10:54:08.005Z,14888.00
2018-07-20T10:55:07.986Z,14448.00
2018-07-20T10:57:00.992Z,13796.00
2018-07-20T10:58:00.835Z,13648.00
2018-07-20T10:59:53.688Z,14128.00
2018-07-20T11:00:53.647Z,14312.00
2018-07-20T11:02:46.707Z,14036.00
2018-07-20T11:03:46.701Z,13592.00
2018-07-20T11:05:39.866Z,13020.00
2018-07-20T11:06:39.878Z,13292.00
2018-07-20T11:08:32.910Z,13740.00
2018-07-20T11:09:32.875Z,14292.00
2018-07-20T11:11:26.146Z,13164.00
2018-07-20T11:12:26.091Z,13816.00
2018-07-20T11:14:19.138Z,13864.00
2018-07-20T11:15:19.112Z,15000.00
2018-07-20T11:17:12.322Z,15420.00
2018-07-20T11:18:12.287Z,15508.00
2018-07-20T11:20:05.346Z,15492.00
2018-07-20T11:21:05.348Z,15652.00
2018-07-20T11:22:58.652Z,15224.00
2018-07-20T11:23:58.616Z,15088.00
2018-07-20T11:25:51.637Z,13876.00
2018-07-20T11:26:51.619Z,13948.00
2018-07-20T11:28:44.478Z,14784.00
2018-07-20T11:29:44.452Z,15176.00
2018-07-20T11:31:37.505Z,14176.00
2018-07-20T11:32:37.485Z,14004.00
2018-07-20T11:34:30.556Z,14076.00
2018-07-20T11:35:30.519Z,13896.00
2018-07-20T11:37:23.453Z,12916.00
2018-07-20T11:38:23.421Z,12584.00
2018-07-20T11:40:16.503Z,12392.00
2018-07-20T11:41:16.468Z,12976.00
2018-07-20T11:43:09.530Z,13576.00
2018-07-20T11:44:09.489Z,13964.00
2018-07-20T11:46:02.482Z,14388.00
2018-07-20T11:47:02.339Z,13976.00
2018-07-20T11:48:55.393Z,14544.00
2018-07-20T11:49:55.354Z,15028.00
2018-07-20T11:51:48.189Z,15116.00
2018-07-20T11:52:48.181Z,15228.00
2018-07-20T11:54:41.562Z,14384.00
2018-07-20T11:55:41.523Z,13696.00
2018-07-20T11:57:34.559Z,12656.00
2018-07-20T11:58:34.557Z,13400.00
2018-07-20T12:00:27.434Z,13344.00
2018-07-20T12:01:27.419Z,13808.00
2018-07-20T12:03:20.449Z,14288.00
2018-07-20T12:04:20.407Z,14388.00
2018-07-20T12:06:13.523Z,13724.00
2018-07-20T12:07:13.424Z,13872.00
2018-07-20T12:09:06.503Z,13708.00
2018-07-20T12:10:06.472Z,13452.00
2018-07-20T12:11:59.340Z,13480.00
2018-07-20T12:12:59.305Z,13552.00
2018-07-20T12:14:52.531Z,13464.00
2018-07-20T12:15:52.458Z,12940.00
2018-07-20T12:17:45.524Z,13392.00
2018-07-20T12:18:45.499Z,12380.00
2018-07-20T12:20:38.549Z,14060.00
2018-07-20T12:21:38.518Z,14404.00
2018-07-20T12:23:31.593Z,14488.00
2018-07-20T12:24:31.575Z,14640.00
2018-07-20T12:26:24.655Z,14344.00
2018-07-20T12:27:24.613Z,14044.00
2018-07-20T12:29:17.751Z,13644.00
2018-07-20T12:30:17.733Z,14052.00
2018-07-20T12:32:10.589Z,13780.00
2018-07-20T12:33:10.578Z,13860.00
2018-07-20T12:35:03.403Z,14044.00
2018-07-20T12:36:03.378Z,14104.00
2018-07-20T12:37:56.589Z,14160.00
2018-07-20T12:38:56.549Z,13944.00
2018-07-20T12:40:49.661Z,13844.00
2018-07-20T12:41:49.619Z,13812.00
2018-07-20T12:43:42.759Z,13660.00
2018-07-20T12:44:42.711Z,13604.00
2018-07-20T12:46:35.784Z,13732.00
2018-07-20T12:47:35.764Z,13524.00
2018-07-20T12:49:28.843Z,13492.00
2018-07-20T12:50:28.844Z,13596.00
2018-07-20T12:52:21.885Z,13424.00
2018-07-20T12:53:21.847Z,13488.00
2018-07-20T12:55:14.879Z,13252.00
2018-07-20T12:56:14.857Z,13176.00
2018-07-20T12:58:07.939Z,12828.00
2018-07-20T12:59:07.897Z,12756.00
2018-07-20T13:01:01.028Z,12728.00
2018-07-20T13:02:01.016Z,12544.00
2018-07-20T13:03:53.902Z,12500.00
2018-07-20T13:04:53.840Z,12304.00
2018-07-20T13:06:46.761Z,11988.00
2018-07-20T13:07:46.661Z,11964.00
2018-07-20T13:09:39.748Z,11816.00
2018-07-20T13:10:39.707Z,11904.00
2018-07-20T13:12:33.001Z,12076.00
2018-07-20T13:13:32.867Z,12092.00
2018-07-20T13:15:25.927Z,11904.00
2018-07-20T13:16:25.903Z,11712.00
2018-07-20T13:18:19.213Z,10828.00
2018-07-20T13:19:19.075Z,10556.00
2018-07-20T13:21:11.917Z,10708.00
2018-07-20T13:22:11.886Z,11320.00
2018-07-20T13:24:04.953Z,11328.00
2018-07-20T13:25:04.912Z,11372.00
2018-07-20T13:26:58.043Z,11392.00
2018-07-20T13:27:58.020Z,11328.00
2018-07-20T13:29:51.118Z,11284.00
2018-07-20T13:30:51.067Z,11356.00
2018-07-20T13:32:44.323Z,11124.00
2018-07-20T13:33:44.296Z,11016.00
2018-07-20T13:35:37.351Z,10804.00
2018-07-20T13:36:37.331Z,10716.00
2018-07-20T13:38:30.542Z,10604.00
2018-07-20T13:39:30.507Z,10472.00
2018-07-20T13:41:24.993Z,10472.00
2018-07-20T13:42:23.602Z,10344.00
2018-07-20T13:44:16.792Z,9264.00
2018-07-20T13:45:16.781Z,8764.00
2018-07-20T13:47:09.623Z,10392.00
2018-07-20T13:48:09.584Z,9980.00
2018-07-20T13:50:02.457Z,10096.00
2018-07-20T13:51:02.417Z,9756.00
2018-07-20T13:52:55.661Z,9112.00
2018-07-20T13:53:55.567Z,8260.00
2018-07-20T13:55:48.628Z,6200.00
2018-07-20T13:56:48.583Z,6936.00
2018-07-20T13:58:41.442Z,5404.00
2018-07-20T13:59:41.403Z,7804.00
2018-07-20T14:01:34.297Z,8864.00
2018-07-20T14:02:34.253Z,8944.00
2018-07-20T14:04:27.613Z,9492.00
2018-07-20T14:05:27.588Z,9548.00
2018-07-20T14:07:20.487Z,9476.00
2018-07-20T14:08:20.468Z,9364.00
2018-07-20T14:10:13.334Z,9116.00
2018-07-20T14:11:13.283Z,9404.00
2018-07-20T14:13:06.334Z,9576.00
2018-07-20T14:14:06.328Z,9688.00
2018-07-20T14:15:59.533Z,9776.00
2018-07-20T14:16:59.485Z,9560.00
2018-07-20T14:18:52.550Z,9588.00
2018-07-20T14:19:52.537Z,9660.00
2018-07-20T14:21:45.769Z,9780.00
2018-07-20T14:22:45.713Z,9868.00
2018-07-20T14:24:38.754Z,9780.00
2018-07-20T14:25:38.853Z,9700.00
2018-07-20T14:27:31.550Z,9532.00
2018-07-20T14:28:31.555Z,9268.00
2018-07-20T14:30:24.408Z,5488.00
2018-07-20T14:31:24.418Z,6484.00
2018-07-20T14:33:17.403Z,6104.00
2018-07-20T14:34:17.386Z,6588.00
2018-07-20T14:36:10.469Z,9388.00
2018-07-20T14:37:10.430Z,9448.00
2018-07-20T14:39:03.285Z,9344.00
2018-07-20T14:40:03.371Z,9184.00
2018-07-20T14:41:56.328Z,8948.00
2018-07-20T14:42:56.308Z,6456.00
2018-07-20T14:44:49.353Z,7248.00
2018-07-20T14:45:49.431Z,8144.00
2018-07-20T14:47:42.441Z,8196.00
2018-07-20T14:48:42.390Z,8184.00
2018-07-20T14:50:35.459Z,7480.00
2018-07-20T14:51:35.407Z,6456.00
2018-07-20T14:53:28.615Z,4880.00
2018-07-20T14:54:28.568Z,4892.00
2018-07-20T14:56:21.619Z,5772.00
2018-07-20T14:57:21.575Z,5768.00
2018-07-20T14:59:14.761Z,6064.00
2018-07-20T15:00:14.719Z,6296.00
2018-07-20T15:02:07.579Z,7060.00
2018-07-20T15:03:07.551Z,7336.00
2018-07-20T15:05:00.591Z,8304.00
2018-07-20T15:06:00.560Z,8700.00
2018-07-20T15:07:53.415Z,8812.00
2018-07-20T15:08:53.381Z,8464.00
2018-07-20T15:10:46.444Z,5164.00
2018-07-20T15:11:46.406Z,4216.00
2018-07-20T15:13:39.484Z,3188.00
2018-07-20T15:14:39.440Z,3108.00
2018-07-20T15:16:32.354Z,2992.00
2018-07-20T15:17:32.306Z,3056.00
2018-07-20T15:19:25.381Z,3224.00
2018-07-20T15:20:25.356Z,3252.00
2018-07-20T15:22:18.212Z,3316.00
2018-07-20T15:23:18.172Z,3376.00
2018-07-20T15:25:11.001Z,3544.00
2018-07-20T15:26:10.972Z,3672.00
2018-07-20T15:28:04.067Z,4132.00
2018-07-20T15:29:04.046Z,4420.00
2018-07-20T15:30:57.093Z,4404.00
2018-07-20T15:31:57.062Z,4500.00
2018-07-20T15:33:50.092Z,4776.00
2018-07-20T15:34:50.030Z,4696.00
2018-07-20T15:36:43.050Z,4644.00
2018-07-20T15:37:43.027Z,4400.00
2018-07-20T15:39:36.165Z,4052.00
2018-07-20T15:40:36.016Z,3932.00
2018-07-20T15:42:28.913Z,3852.00
2018-07-20T15:43:28.935Z,3820.00
2018-07-20T15:45:21.922Z,3624.00
2018-07-20T15:46:21.969Z,3504.00
2018-07-20T15:48:15.275Z,3316.00
2018-07-20T15:49:15.177Z,3248.00
2018-07-20T15:51:08.207Z,3132.00
2018-07-20T15:54:01.599Z,3216.00
2018-07-20T15:55:01.335Z,3228.00
2018-07-20T15:56:54.376Z,3272.00
2018-07-20T15:57:54.369Z,3316.00
2018-07-20T15:59:47.575Z,3360.00
2018-07-20T16:00:47.396Z,3360.00
2018-07-20T16:02:40.214Z,3368.00
2018-07-20T16:03:40.184Z,3380.00
2018-07-20T16:05:33.048Z,3400.00
2018-07-20T16:06:32.980Z,3320.00
2018-07-20T16:08:27.342Z,3116.00
2018-07-20T16:09:27.278Z,2980.00
2018-07-20T16:11:20.136Z,2656.00
2018-07-20T16:12:20.083Z,2476.00
2018-07-20T16:14:12.934Z,2216.00
2018-07-20T16:15:12.907Z,2128.00
2018-07-20T16:17:06.024Z,1976.00
2018-07-20T16:18:05.929Z,1904.00
2018-07-20T16:19:58.836Z,1808.00
2018-07-20T16:20:58.802Z,1748.00
2018-07-20T16:22:51.931Z,1608.00
2018-07-20T16:23:51.818Z,1524.00
2018-07-20T16:25:44.774Z,1364.00
2018-07-20T16:26:44.619Z,1268.00
2018-07-20T16:28:37.855Z,1072.00
2018-07-20T16:29:37.788Z,972.00
2018-07-20T16:31:30.814Z,776.00
2018-07-20T16:32:30.773Z,680.00
2018-07-20T16:34:23.809Z,548.00
2018-07-20T16:35:23.773Z,492.00
2018-07-20T16:37:16.643Z,400.00
2018-07-20T16:38:16.585Z,364.00
2018-07-20T16:40:09.409Z,336.00
2018-07-20T16:41:09.411Z,396.00
2018-07-20T16:43:02.435Z,436.00
2018-07-20T16:44:02.438Z,484.00
2018-07-20T16:45:55.633Z,576.00
2018-07-20T16:46:55.527Z,620.00
2018-07-20T16:48:48.570Z,700.00
2018-07-20T16:49:48.540Z,720.00
2018-07-20T16:51:41.537Z,720.00
2018-07-20T16:52:41.515Z,720.00
2018-07-20T16:54:34.571Z,736.00
2018-07-20T16:55:34.504Z,776.00
2018-07-20T16:57:27.541Z,876.00
2018-07-20T16:58:27.496Z,932.00
2018-07-20T17:00:20.687Z,1012.00
2018-07-20T17:01:20.629Z,1028.00
2018-07-20T17:03:13.826Z,1052.00
2018-07-20T17:04:13.789Z,1072.00
2018-07-20T17:06:06.969Z,1140.00
2018-07-20T17:07:06.944Z,1176.00
2018-07-20T17:09:00.059Z,1232.00
2018-07-20T17:10:00.001Z,1256.00
2018-07-20T17:11:53.191Z,1328.00
2018-07-20T17:12:53.160Z,1348.00
2018-07-20T17:14:46.258Z,1352.00
2018-07-20T17:15:46.201Z,1380.00
2018-07-20T17:17:39.388Z,1544.00
2018-07-20T17:18:39.359Z,1700.00
2018-07-20T17:20:32.463Z,1972.00
2018-07-20T17:21:32.411Z,2056.00
2018-07-20T17:23:25.576Z,2080.00
2018-07-20T17:24:25.545Z,2024.00
2018-07-20T17:26:18.593Z,1884.00
2018-07-20T17:27:18.647Z,1792.00
2018-07-20T17:29:11.841Z,1700.00
2018-07-20T17:30:11.689Z,1704.00
2018-07-20T17:32:05.028Z,1748.00
2018-07-20T17:33:04.981Z,1772.00
2018-07-20T17:34:57.908Z,1812.00
2018-07-20T17:35:57.876Z,1800.00
2018-07-20T17:37:50.934Z,1760.00
2018-07-20T17:38:50.881Z,1740.00
2018-07-20T17:40:43.916Z,1692.00
2018-07-20T17:41:43.876Z,1680.00
2018-07-20T17:43:36.696Z,1676.00
2018-07-20T17:44:36.676Z,1660.00